createdAt,value
2017-09-13T00:00:33.780Z,81.71
2017-09-13T00:01:14.338Z,82
2017-09-13T00:01:54.913Z,82
2017-09-13T00:02:35.488Z,82
2017-09-13T00:03:16.059Z,81.9
2017-09-13T00:03:56.620Z,82.09
2017-09-13T00:04:37.185Z,82.09
2017-09-13T00:05:17.762Z,82.86
2017-09-13T00:05:58.306Z,82.15
2017-09-13T00:06:38.881Z,82.09
2017-09-13T00:07:19.442Z,82.67
2017-09-13T00:08:00.017Z,82.29
2017-09-13T00:08:40.619Z,82.57
2017-09-13T00:09:21.176Z,82.34
2017-09-13T00:10:01.749Z,82.63
2017-09-13T00:10:42.324Z,82.34
2017-09-13T00:11:22.894Z,82.24
2017-09-13T00:12:03.447Z,82.53
2017-09-13T00:12:44.007Z,82.63
2017-09-13T00:13:24.576Z,82.43
2017-09-13T00:14:05.146Z,82.72
2017-09-13T00:14:45.721Z,82.63
2017-09-13T00:15:26.299Z,82.43
2017-09-13T00:16:06.857Z,82.53
2017-09-13T00:16:47.427Z,82.34
2017-09-13T00:17:27.998Z,82.53
2017-09-13T00:18:08.569Z,82.53
2017-09-13T00:18:49.147Z,82.34
2017-09-13T00:19:29.701Z,82.63
2017-09-13T00:20:10.254Z,82.82
2017-09-13T00:20:50.834Z,82.63
2017-09-13T00:21:31.398Z,82.82
2017-09-13T00:22:11.970Z,82.72
2017-09-13T00:22:52.531Z,82.72
2017-09-13T00:23:33.092Z,82.53
2017-09-13T00:24:13.661Z,82.53
2017-09-13T00:24:54.219Z,82.82
2017-09-13T00:25:34.787Z,82.82
2017-09-13T00:26:15.374Z,82.82
2017-09-13T00:26:55.939Z,82.53
2017-09-13T00:27:36.512Z,82.63
2017-09-13T00:28:17.068Z,82.63
2017-09-13T00:28:57.622Z,82.53
2017-09-13T00:29:38.186Z,82.63
2017-09-13T00:30:18.781Z,82.53
2017-09-13T00:30:59.349Z,82.53
2017-09-13T00:31:39.928Z,82.34
2017-09-13T00:32:20.502Z,82.82
2017-09-13T00:33:01.091Z,82.82
2017-09-13T00:33:41.664Z,83.29
2017-09-13T00:34:22.228Z,82.43
2017-09-13T00:35:02.806Z,83.29
2017-09-13T00:35:43.365Z,83.2
2017-09-13T00:36:23.938Z,83.2
2017-09-13T00:37:04.526Z,82.82
2017-09-13T00:37:45.105Z,83.29
2017-09-13T00:38:25.680Z,83.11
2017-09-13T00:39:06.254Z,83.11
2017-09-13T00:39:46.829Z,83.01
2017-09-13T00:40:27.396Z,83.29
2017-09-13T00:41:07.966Z,83.39
2017-09-13T00:41:48.550Z,83.01
2017-09-13T00:42:29.132Z,83.01
2017-09-13T00:43:09.703Z,82.34
2017-09-13T00:43:50.265Z,83.01
2017-09-13T00:44:30.827Z,82.43
2017-09-13T00:45:11.405Z,82.82
2017-09-13T00:45:51.993Z,83.11
2017-09-13T00:46:32.579Z,82.82
2017-09-13T00:47:13.123Z,83.01
2017-09-13T00:47:53.693Z,82.82
2017-09-13T00:48:34.249Z,83.01
2017-09-13T00:49:14.809Z,83.29
2017-09-13T00:49:55.380Z,83.01
2017-09-13T00:50:35.933Z,83.29
2017-09-13T00:51:16.563Z,83.2
2017-09-13T00:51:57.149Z,83.11
2017-09-13T00:52:37.732Z,82.43
2017-09-13T00:53:18.282Z,83.2
2017-09-13T00:53:58.908Z,83.29
2017-09-13T00:54:39.456Z,83.2
2017-09-13T00:55:20.057Z,82.91
2017-09-13T00:56:00.644Z,82.34
2017-09-13T00:56:41.212Z,82.82
2017-09-13T00:57:21.822Z,82.82
2017-09-13T00:58:02.378Z,83.39
2017-09-13T00:58:42.957Z,83.67
2017-09-13T00:59:23.518Z,83.77
2017-09-13T01:00:04.089Z,83.2
2017-09-13T01:00:44.655Z,83.2
2017-09-13T01:01:25.265Z,83.11
2017-09-13T01:02:05.846Z,83.01
2017-09-13T01:02:46.432Z,83.01
2017-09-13T01:03:27.003Z,82.82
2017-09-13T01:04:07.596Z,83.29
2017-09-13T01:04:48.148Z,83.01
2017-09-13T01:05:28.743Z,82.53
2017-09-13T01:06:09.307Z,82.53
2017-09-13T01:06:49.882Z,83.48
2017-09-13T01:07:30.441Z,83.11
2017-09-13T01:08:11.001Z,82.72
2017-09-13T01:08:51.566Z,82.82
2017-09-13T01:09:32.174Z,83.01
2017-09-13T01:10:12.759Z,83.2
2017-09-13T01:10:53.299Z,83.11
2017-09-13T01:11:33.897Z,82.63
2017-09-13T01:12:14.454Z,82.34
2017-09-13T01:12:55.024Z,83.01
2017-09-13T01:13:35.631Z,83.39
2017-09-13T01:14:16.205Z,82.43
2017-09-13T01:14:56.796Z,83.01
2017-09-13T01:15:37.373Z,82.82
2017-09-13T01:16:17.939Z,83.11
2017-09-13T01:16:58.514Z,83.11
2017-09-13T01:17:39.118Z,83.11
2017-09-13T01:18:19.704Z,83.29
2017-09-13T01:19:00.265Z,82.82
2017-09-13T01:19:40.829Z,83.29
2017-09-13T01:20:21.380Z,82.72
2017-09-13T01:21:01.944Z,83.01
2017-09-13T01:21:42.530Z,82.82
2017-09-13T01:22:23.085Z,83.01
2017-09-13T01:23:03.651Z,83.29
2017-09-13T01:23:44.221Z,83.01
2017-09-13T01:24:24.801Z,83.2
2017-09-13T01:25:05.391Z,83.11
2017-09-13T01:25:45.962Z,82.72
2017-09-13T01:26:26.524Z,83.39
2017-09-13T01:27:07.085Z,83.11
2017-09-13T01:27:47.651Z,82.72
2017-09-13T01:28:28.225Z,82.91
2017-09-13T01:29:08.819Z,83.11
2017-09-13T01:29:49.398Z,83.67
2017-09-13T01:30:29.978Z,82.72
2017-09-13T01:31:10.559Z,82.72
2017-09-13T01:31:51.165Z,82.82
2017-09-13T01:32:31.733Z,82.72
2017-09-13T01:33:12.292Z,82.82
2017-09-13T01:33:52.873Z,83.01
2017-09-13T01:34:33.498Z,83.58
2017-09-13T01:35:14.105Z,83.54
2017-09-13T01:35:54.648Z,83.29
2017-09-13T01:36:35.246Z,83.83
2017-09-13T01:37:15.793Z,83.54
2017-09-13T01:37:56.340Z,83.77
2017-09-13T01:38:37.000Z,83.77
2017-09-13T01:39:17.598Z,83.67
2017-09-13T01:39:58.177Z,83.67
2017-09-13T01:40:38.747Z,83.54
2017-09-13T01:41:19.328Z,83.73
2017-09-13T01:41:59.903Z,83.58
2017-09-13T01:42:40.472Z,83.44
2017-09-13T01:43:21.035Z,83.73
2017-09-13T01:44:01.588Z,83.44
2017-09-13T01:44:42.188Z,83.73
2017-09-13T01:45:22.743Z,83.64
2017-09-13T01:46:03.305Z,83.58
2017-09-13T01:46:43.865Z,83.64
2017-09-13T01:47:24.460Z,83.83
2017-09-13T01:48:05.021Z,83.48
2017-09-13T01:48:45.576Z,83.67
2017-09-13T01:49:26.136Z,83.67
2017-09-13T01:50:06.696Z,83.67
2017-09-13T01:50:47.290Z,83.58
2017-09-13T01:51:27.906Z,83.48
2017-09-13T01:52:08.501Z,83.48
2017-09-13T01:52:49.068Z,83.58
2017-09-13T01:53:29.629Z,83.64
2017-09-13T01:54:10.193Z,83.58
2017-09-13T01:54:50.755Z,83.67
2017-09-13T01:55:31.319Z,83.64
2017-09-13T01:56:11.896Z,83.77
2017-09-13T01:56:52.462Z,83.64
2017-09-13T01:57:33.039Z,83.77
2017-09-13T01:58:13.644Z,84.06
2017-09-13T01:58:54.202Z,83.64
2017-09-13T01:59:34.780Z,83.54
2017-09-13T02:00:15.380Z,83.54
2017-09-13T02:00:55.932Z,83.83
2017-09-13T02:01:36.483Z,83.64
2017-09-13T02:02:17.058Z,83.44
2017-09-13T02:02:57.624Z,83.25
2017-09-13T02:03:38.187Z,83.83
2017-09-13T02:04:18.758Z,83.92
2017-09-13T02:04:59.322Z,84.01
2017-09-13T02:05:39.888Z,83.92
2017-09-13T02:06:20.463Z,83.92
2017-09-13T02:07:01.022Z,84.11
2017-09-13T02:07:41.610Z,84.11
2017-09-13T02:08:22.180Z,83.92
2017-09-13T02:09:02.746Z,84.2
2017-09-13T02:09:43.309Z,84.01
2017-09-13T02:10:23.878Z,84.11
2017-09-13T02:11:04.441Z,84.11
2017-09-13T02:11:45.009Z,83.92
2017-09-13T02:12:25.579Z,84.3
2017-09-13T02:13:06.166Z,84.01
2017-09-13T02:13:46.724Z,83.73
2017-09-13T02:14:27.318Z,84.11
2017-09-13T02:15:07.880Z,84.3
2017-09-13T02:15:48.428Z,83.83
2017-09-13T02:16:28.986Z,84.01
2017-09-13T02:17:09.547Z,83.25
2017-09-13T02:17:50.106Z,83.64
2017-09-13T02:18:30.674Z,83.64
2017-09-13T02:19:11.249Z,83.83
2017-09-13T02:19:51.826Z,83.92
2017-09-13T02:20:32.394Z,84.01
2017-09-13T02:21:12.964Z,84.2
2017-09-13T02:21:53.517Z,83.92
2017-09-13T02:22:34.112Z,84.4
2017-09-13T02:23:14.673Z,83.92
2017-09-13T02:23:55.251Z,84.2
2017-09-13T02:24:35.813Z,84.11
2017-09-13T02:25:16.388Z,84.01
2017-09-13T02:25:56.970Z,84.11
2017-09-13T02:26:37.527Z,84.3
2017-09-13T02:27:18.105Z,84.01
2017-09-13T02:27:58.666Z,84.11
2017-09-13T02:28:39.222Z,83.83
2017-09-13T02:29:19.779Z,84.2
2017-09-13T02:30:00.339Z,83.83
2017-09-13T02:30:40.922Z,83.92
2017-09-13T02:31:21.474Z,83.92
2017-09-13T02:32:02.036Z,83.92
2017-09-13T02:32:42.625Z,84.01
2017-09-13T02:33:23.196Z,84.3
2017-09-13T02:34:03.790Z,84.2
2017-09-13T02:34:44.318Z,83.92
2017-09-13T02:35:24.911Z,84.2
2017-09-13T02:36:05.463Z,84.2
2017-09-13T02:36:46.037Z,83.92
2017-09-13T02:37:26.593Z,83.92
2017-09-13T02:38:07.150Z,83.92
2017-09-13T02:38:47.710Z,84.01
2017-09-13T02:39:28.306Z,84.2
2017-09-13T02:40:08.878Z,84.01
2017-09-13T02:40:49.424Z,84.11
2017-09-13T02:41:30.052Z,84.2
2017-09-13T02:42:10.620Z,84.2
2017-09-13T02:42:51.168Z,84.3
2017-09-13T02:43:31.726Z,84.11
2017-09-13T02:44:12.302Z,84.01
2017-09-13T02:44:52.875Z,84.01
2017-09-13T02:45:33.465Z,83.92
2017-09-13T02:46:14.010Z,84.59
2017-09-13T02:46:54.580Z,84.4
2017-09-13T02:47:35.133Z,84.3
2017-09-13T02:48:15.691Z,84.4
2017-09-13T02:48:56.260Z,84.3
2017-09-13T02:49:36.830Z,84.3
2017-09-13T02:50:17.450Z,84.59
2017-09-13T02:50:58.000Z,84.3
2017-09-13T02:51:38.574Z,84.3
2017-09-13T02:52:19.165Z,84.78
2017-09-13T02:52:59.727Z,84.59
2017-09-13T02:53:40.295Z,84.59
2017-09-13T02:54:20.867Z,84.59
2017-09-13T02:55:01.428Z,84.69
2017-09-13T02:55:41.975Z,84.59
2017-09-13T02:56:22.543Z,84.4
2017-09-13T02:57:03.146Z,84.55
2017-09-13T02:57:43.763Z,84.69
2017-09-13T02:58:24.315Z,84.55
2017-09-13T02:59:04.885Z,84.55
2017-09-13T02:59:45.450Z,84.88
2017-09-13T03:00:26.005Z,84.26
2017-09-13T03:01:06.569Z,84.88
2017-09-13T03:01:47.130Z,84.74
2017-09-13T03:02:27.703Z,84.74
2017-09-13T03:03:08.286Z,85.31
2017-09-13T03:03:48.853Z,85.41
2017-09-13T03:04:29.424Z,84.92
2017-09-13T03:05:09.999Z,85.41
2017-09-13T03:05:50.563Z,84.88
2017-09-13T03:06:31.148Z,84.97
2017-09-13T03:07:11.699Z,85.35
2017-09-13T03:07:52.263Z,85.02
2017-09-13T03:08:32.869Z,85.41
2017-09-13T03:09:13.473Z,85.21
2017-09-13T03:09:54.027Z,85.45
2017-09-13T03:10:34.585Z,85.12
2017-09-13T03:11:15.152Z,84.92
2017-09-13T03:11:55.746Z,85.12
2017-09-13T03:12:36.314Z,85.45
2017-09-13T03:13:16.888Z,85.5
2017-09-13T03:13:57.460Z,85.31
2017-09-13T03:14:38.031Z,85.45
2017-09-13T03:15:18.613Z,85.31
2017-09-13T03:15:59.197Z,85.88
2017-09-13T03:16:39.771Z,85.78
2017-09-13T03:17:20.363Z,85.69
2017-09-13T03:18:00.919Z,85.93
2017-09-13T03:18:41.499Z,85.78
2017-09-13T03:19:22.077Z,85.6
2017-09-13T03:20:02.648Z,85.73
2017-09-13T03:20:43.212Z,85.5
2017-09-13T03:21:23.774Z,86.07
2017-09-13T03:22:04.357Z,85.69
2017-09-13T03:22:44.921Z,86.16
2017-09-13T03:23:25.479Z,85.69
2017-09-13T03:24:06.043Z,85.88
2017-09-13T03:24:46.616Z,86.36
2017-09-13T03:25:27.188Z,86.36
2017-09-13T03:26:07.741Z,86.07
2017-09-13T03:26:48.325Z,86.45
2017-09-13T03:27:28.884Z,86.45
2017-09-13T03:28:09.450Z,86.45
2017-09-13T03:28:50.025Z,86.26
2017-09-13T03:29:30.627Z,86.45
2017-09-13T03:30:11.218Z,86.26
2017-09-13T03:30:51.782Z,86.36
2017-09-13T03:31:32.350Z,86.74
2017-09-13T03:32:12.934Z,86.45
2017-09-13T03:32:53.503Z,86.93
2017-09-13T03:33:34.078Z,87.02
2017-09-13T03:34:14.633Z,86.93
2017-09-13T03:34:55.196Z,86.93
2017-09-13T03:35:35.753Z,86.74
2017-09-13T03:36:16.311Z,87.02
2017-09-13T03:36:56.874Z,86.93
2017-09-13T03:37:37.437Z,86.93
2017-09-13T03:38:18.011Z,86.93
2017-09-13T03:38:58.594Z,87.02
2017-09-13T03:39:39.192Z,86.74
2017-09-13T03:40:19.760Z,86.74
2017-09-13T03:41:00.346Z,86.55
2017-09-13T03:41:40.920Z,86.65
2017-09-13T03:42:21.487Z,86.74
2017-09-13T03:43:02.060Z,86.74
2017-09-13T03:43:42.611Z,86.74
2017-09-13T03:44:23.183Z,86.93
2017-09-13T03:45:03.754Z,86.74
2017-09-13T03:45:44.318Z,87.12
2017-09-13T03:46:24.890Z,86.74
2017-09-13T03:47:05.454Z,86.93
2017-09-13T03:47:46.016Z,86.55
2017-09-13T03:48:26.585Z,86.83
2017-09-13T03:49:07.191Z,87.12
2017-09-13T03:49:47.733Z,86.65
2017-09-13T03:50:28.333Z,86.74
2017-09-13T03:51:08.907Z,87.12
2017-09-13T03:51:49.465Z,86.65
2017-09-13T03:52:30.024Z,86.93
2017-09-13T03:53:10.580Z,86.45
2017-09-13T03:53:51.139Z,86.65
2017-09-13T03:54:31.701Z,86.93
2017-09-13T03:55:12.275Z,86.93
2017-09-13T03:55:52.856Z,86.83
2017-09-13T03:56:33.435Z,86.93
2017-09-13T03:57:14.006Z,87.31
2017-09-13T03:57:54.573Z,87.21
2017-09-13T03:58:35.139Z,87.21
2017-09-13T03:59:15.695Z,87.02
2017-09-13T03:59:56.257Z,87.4
2017-09-13T04:00:36.821Z,87.4
2017-09-13T04:01:17.385Z,87.31
2017-09-13T04:01:57.947Z,87.4
2017-09-13T04:02:38.505Z,87.4
2017-09-13T04:03:19.079Z,87.21
2017-09-13T04:03:59.643Z,87.21
2017-09-13T04:04:40.198Z,87.31
2017-09-13T04:05:20.758Z,87.12
2017-09-13T04:06:01.307Z,87.12
2017-09-13T04:06:41.908Z,87.02
2017-09-13T04:07:22.474Z,87.12
2017-09-13T04:08:03.032Z,87.12
2017-09-13T04:08:43.594Z,86.93
2017-09-13T04:09:24.167Z,86.93
2017-09-13T04:10:04.722Z,86.93
2017-09-13T04:10:45.287Z,87.02
2017-09-13T04:11:25.859Z,86.93
2017-09-13T04:12:06.455Z,86.93
2017-09-13T04:12:47.015Z,87.21
2017-09-13T04:13:27.573Z,87.02
2017-09-13T04:14:08.141Z,87.12
2017-09-13T04:14:48.722Z,87.02
2017-09-13T04:15:29.283Z,87.12
2017-09-13T04:16:09.848Z,87.12
2017-09-13T04:16:50.420Z,87.12
2017-09-13T04:17:30.973Z,87.31
2017-09-13T04:18:11.554Z,87.21
2017-09-13T04:18:52.136Z,87.12
2017-09-13T04:19:32.687Z,87.69
2017-09-13T04:20:13.246Z,87.6
2017-09-13T04:20:53.825Z,87.4
2017-09-13T04:21:34.405Z,87.31
2017-09-13T04:22:14.975Z,87.69
2017-09-13T04:22:55.532Z,87.69
2017-09-13T04:23:36.119Z,87.79
2017-09-13T04:24:16.683Z,87.12
2017-09-13T04:24:57.279Z,87.12
2017-09-13T04:25:37.844Z,87.21
2017-09-13T04:26:18.400Z,87.21
2017-09-13T04:26:58.952Z,87.31
2017-09-13T04:27:39.509Z,87.4
2017-09-13T04:28:20.078Z,87.12
2017-09-13T04:29:00.656Z,87.21
2017-09-13T04:29:41.222Z,87.02
2017-09-13T04:30:21.799Z,87.31
2017-09-13T04:31:02.395Z,87.02
2017-09-13T04:31:42.954Z,87.12
2017-09-13T04:32:24.495Z,87.21
2017-09-13T04:33:05.064Z,87.12
2017-09-13T04:33:45.631Z,87.12
2017-09-13T04:34:26.192Z,87.02
2017-09-13T04:35:06.754Z,87.21
2017-09-13T04:35:47.323Z,87.21
2017-09-13T04:36:27.902Z,87.31
2017-09-13T04:37:08.466Z,87.12
2017-09-13T04:37:49.038Z,87.12
2017-09-13T04:38:29.635Z,87.02
2017-09-13T04:39:10.192Z,87.31
2017-09-13T04:39:50.808Z,87.02
2017-09-13T04:40:31.351Z,87.21
2017-09-13T04:41:11.923Z,87.02
2017-09-13T04:41:52.504Z,87.12
2017-09-13T04:42:33.174Z,87.12
2017-09-13T04:43:14.088Z,87.4
2017-09-13T04:43:54.661Z,86.83
2017-09-13T04:44:35.253Z,86.45
2017-09-13T04:45:15.925Z,87.02
2017-09-13T04:45:56.546Z,87.31
2017-09-13T04:46:37.419Z,87.02
2017-09-13T04:47:17.992Z,86.74
2017-09-13T04:47:58.558Z,87.02
2017-09-13T04:48:40.891Z,86.74
2017-09-13T04:49:21.449Z,86.65
2017-09-13T04:50:02.008Z,86.74
2017-09-13T04:50:42.609Z,86.83
2017-09-13T04:51:23.180Z,86.74
2017-09-13T04:52:03.761Z,86.74
2017-09-13T04:52:44.351Z,86.69
2017-09-13T04:53:24.988Z,86.65
2017-09-13T04:54:05.606Z,86.55
2017-09-13T04:54:46.585Z,86.93
2017-09-13T04:55:27.653Z,86.26
2017-09-13T04:56:08.295Z,86.26
2017-09-13T04:56:49.227Z,86.26
2017-09-13T04:57:29.996Z,86.36
2017-09-13T04:58:10.725Z,86.45
2017-09-13T04:58:51.399Z,86.45
2017-09-13T04:59:32.268Z,86.49
2017-09-13T05:00:13.132Z,86.49
2017-09-13T05:00:53.663Z,86.11
2017-09-13T05:01:34.288Z,86.45
2017-09-13T05:02:15.114Z,86.45
2017-09-13T05:02:55.689Z,86.3
2017-09-13T05:03:36.289Z,86.45
2017-09-13T05:04:16.861Z,86.36
2017-09-13T05:04:57.422Z,86.55
2017-09-13T05:05:37.983Z,86.45
2017-09-13T05:06:18.558Z,85.93
2017-09-13T05:06:59.115Z,85.97
2017-09-13T05:07:39.682Z,86.11
2017-09-13T05:08:20.268Z,86.49
2017-09-13T05:09:00.842Z,86.3
2017-09-13T05:09:41.449Z,86.21
2017-09-13T05:10:21.997Z,86.3
2017-09-13T05:11:02.573Z,86.3
2017-09-13T05:11:43.133Z,85.83
2017-09-13T05:12:23.724Z,85.93
2017-09-13T05:13:04.292Z,85.73
2017-09-13T05:13:44.867Z,85.64
2017-09-13T05:14:25.451Z,86.02
2017-09-13T05:15:06.041Z,85.93
2017-09-13T05:15:46.620Z,85.93
2017-09-13T05:16:27.167Z,85.93
2017-09-13T05:17:07.727Z,86.02
2017-09-13T05:17:48.289Z,85.93
2017-09-13T05:18:29.626Z,85.73
2017-09-13T05:19:10.231Z,85.83
2017-09-13T05:19:50.789Z,85.73
2017-09-13T05:20:31.345Z,85.64
2017-09-13T05:21:11.907Z,85.54
2017-09-13T05:21:52.491Z,85.73
2017-09-13T05:22:33.039Z,85.64
2017-09-13T05:23:13.595Z,86.21
2017-09-13T05:23:54.157Z,85.93
2017-09-13T05:24:34.714Z,85.64
2017-09-13T05:25:15.301Z,85.83
2017-09-13T05:25:55.884Z,85.64
2017-09-13T05:26:36.442Z,85.73
2017-09-13T05:27:17.001Z,85.64
2017-09-13T05:27:57.576Z,85.64
2017-09-13T05:28:38.136Z,85.83
2017-09-13T05:29:18.696Z,85.83
2017-09-13T05:29:59.424Z,85.54
2017-09-13T05:30:40.071Z,86.11
2017-09-13T05:31:20.712Z,85.54
2017-09-13T05:32:01.266Z,85.54
2017-09-13T05:32:41.837Z,85.64
2017-09-13T05:33:22.599Z,85.54
2017-09-13T05:34:03.184Z,85.73
2017-09-13T05:34:43.746Z,85.73
2017-09-13T05:35:25.035Z,85.73
2017-09-13T05:36:05.607Z,85.83
2017-09-13T05:36:46.177Z,85.83
2017-09-13T05:37:26.992Z,85.73
2017-09-13T05:38:07.554Z,85.73
2017-09-13T05:38:48.253Z,85.73
2017-09-13T05:39:28.823Z,85.93
2017-09-13T05:40:09.521Z,85.93
2017-09-13T05:40:50.372Z,85.93
2017-09-13T05:41:30.944Z,85.93
2017-09-13T05:42:11.512Z,85.25
2017-09-13T05:42:52.089Z,85.45
2017-09-13T05:43:32.642Z,85.35
2017-09-13T05:44:13.301Z,85.35
2017-09-13T05:44:53.958Z,85.35
2017-09-13T05:45:34.602Z,85.16
2017-09-13T05:46:15.162Z,85.45
2017-09-13T05:46:55.746Z,85.54
2017-09-13T05:47:36.305Z,85.54
2017-09-13T05:48:16.897Z,85.45
2017-09-13T05:48:57.460Z,85.54
2017-09-13T05:49:38.033Z,85.16
2017-09-13T05:50:18.628Z,85.49
2017-09-13T05:50:59.178Z,85.06
2017-09-13T05:51:39.742Z,85.35
2017-09-13T05:52:20.300Z,85.11
2017-09-13T05:53:00.856Z,85.21
2017-09-13T05:53:41.425Z,85.49
2017-09-13T05:54:21.977Z,85.11
2017-09-13T05:55:02.546Z,85.54
2017-09-13T05:55:43.119Z,85.49
2017-09-13T05:56:23.687Z,85.49
2017-09-13T05:57:04.241Z,85.3
2017-09-13T05:57:44.811Z,85.49
2017-09-13T05:58:25.376Z,85.49
2017-09-13T05:59:05.938Z,85.39
2017-09-13T05:59:46.499Z,85.11
2017-09-13T06:00:27.062Z,85.21
2017-09-13T06:01:07.650Z,85.3
2017-09-13T06:01:48.240Z,85.21
2017-09-13T06:02:28.800Z,85.49
2017-09-13T06:03:09.374Z,85.49
2017-09-13T06:03:49.940Z,85.3
2017-09-13T06:04:30.519Z,84.72
2017-09-13T06:05:11.103Z,85.01
2017-09-13T06:05:51.662Z,85.01
2017-09-13T06:06:32.247Z,85.11
2017-09-13T06:07:12.838Z,84.63
2017-09-13T06:07:53.434Z,84.44
2017-09-13T06:08:34.040Z,84.53
2017-09-13T06:09:14.610Z,84.34
2017-09-13T06:09:55.178Z,84.25
2017-09-13T06:10:35.740Z,84.34
2017-09-13T06:11:16.311Z,84.44
2017-09-13T06:11:56.873Z,84.82
2017-09-13T06:12:37.438Z,84.06
2017-09-13T06:13:18.010Z,83.96
2017-09-13T06:13:58.594Z,84.44
2017-09-13T06:14:39.160Z,84.44
2017-09-13T06:15:19.724Z,84.53
2017-09-13T06:16:00.282Z,84.16
2017-09-13T06:16:40.872Z,83.96
2017-09-13T06:17:21.452Z,84.16
2017-09-13T06:18:02.005Z,84.16
2017-09-13T06:18:42.586Z,84.25
2017-09-13T06:19:23.308Z,83.87
2017-09-13T06:20:04.341Z,83.96
2017-09-13T06:20:44.906Z,84.06
2017-09-13T06:21:25.730Z,84.06
2017-09-13T06:22:06.304Z,84.16
2017-09-13T06:22:46.870Z,84.16
2017-09-13T06:23:27.756Z,84.06
2017-09-13T06:24:08.352Z,83.96
2017-09-13T06:24:49.557Z,84.06
2017-09-13T06:25:30.369Z,83.96
2017-09-13T06:26:11.049Z,83.87
2017-09-13T06:26:51.699Z,83.96
2017-09-13T06:27:33.228Z,84.06
2017-09-13T06:28:14.003Z,84.25
2017-09-13T06:28:54.544Z,84.34
2017-09-13T06:29:35.119Z,83.96
2017-09-13T06:30:15.840Z,84.16
2017-09-13T06:30:56.408Z,83.96
2017-09-13T06:31:37.116Z,84.53
2017-09-13T06:32:17.791Z,84.39
2017-09-13T06:32:58.391Z,84.92
2017-09-13T06:33:38.990Z,84.63
2017-09-13T06:34:19.672Z,84.82
2017-09-13T06:35:00.228Z,84.34
2017-09-13T06:35:40.821Z,84.82
2017-09-13T06:36:21.565Z,85.3
2017-09-13T06:37:02.167Z,85.25
2017-09-13T06:37:42.743Z,85.49
2017-09-13T06:38:23.570Z,85.72
2017-09-13T06:39:04.299Z,86.01
2017-09-13T06:39:45.530Z,85.58
2017-09-13T06:40:26.234Z,86.01
2017-09-13T06:41:06.820Z,85.97
2017-09-13T06:41:47.401Z,86.35
2017-09-13T06:42:31.817Z,86.54
2017-09-13T06:43:15.074Z,86.92
2017-09-13T06:43:56.100Z,86.87
2017-09-13T06:44:37.049Z,86.96
2017-09-13T06:45:18.710Z,86.87
2017-09-13T06:45:59.302Z,87.15
2017-09-13T06:46:39.942Z,86.96
2017-09-13T06:47:21.520Z,87.15
2017-09-13T06:48:02.129Z,87.35
2017-09-13T06:48:42.686Z,87.44
2017-09-13T06:49:23.247Z,87.54
2017-09-13T06:50:04.038Z,87.54
2017-09-13T06:50:44.616Z,87.54
2017-09-13T06:51:25.282Z,87.68
2017-09-13T06:52:05.935Z,87.35
2017-09-13T06:52:46.485Z,87.49
2017-09-13T06:53:27.188Z,87.73
2017-09-13T06:54:07.778Z,87.63
2017-09-13T06:54:48.638Z,87.92
2017-09-13T06:55:29.222Z,88.11
2017-09-13T06:56:09.804Z,88.16
2017-09-13T06:56:50.410Z,88.2
2017-09-13T06:57:30.975Z,88.83
2017-09-13T06:58:11.815Z,89.54
2017-09-13T06:58:52.475Z,89.25
2017-09-13T06:59:33.223Z,89.06
2017-09-13T07:00:13.829Z,89.35
2017-09-13T07:00:54.389Z,89.83
2017-09-13T07:01:34.972Z,89.64
2017-09-13T07:02:15.532Z,89.64
2017-09-13T07:02:56.107Z,89.73
2017-09-13T07:03:36.660Z,89.64
2017-09-13T07:04:17.282Z,90.02
2017-09-13T07:04:57.850Z,90.21
2017-09-13T07:05:38.419Z,90.21
2017-09-13T07:06:19.000Z,90.4
2017-09-13T07:06:59.558Z,90.02
2017-09-13T07:09:54.314Z,90.02
2017-09-13T07:10:34.867Z,90.02
2017-09-13T07:11:15.447Z,90.69
2017-09-13T07:11:56.035Z,90.88
2017-09-13T07:12:36.732Z,90.31
2017-09-13T07:13:17.312Z,90.4
2017-09-13T07:13:57.882Z,90.69
2017-09-13T07:14:38.523Z,90.78
2017-09-13T07:15:19.071Z,90.5
2017-09-13T07:15:59.683Z,90.31
2017-09-13T07:16:40.431Z,90.69
2017-09-13T07:17:21.301Z,90.78
2017-09-13T07:18:01.942Z,90.78
2017-09-13T07:18:42.505Z,90.59
2017-09-13T07:19:23.066Z,90.69
2017-09-13T07:20:03.622Z,90.69
2017-09-13T07:20:44.326Z,90.97
2017-09-13T07:21:24.878Z,90.78
2017-09-13T07:22:05.494Z,91.16
2017-09-13T07:22:46.035Z,91.07
2017-09-13T07:23:26.574Z,91.45
2017-09-13T07:24:07.134Z,91.45
2017-09-13T07:24:47.692Z,91.45
2017-09-13T07:25:28.252Z,91.26
2017-09-13T07:26:08.834Z,91.16
2017-09-13T07:26:49.382Z,90.97
2017-09-13T07:27:29.941Z,91.55
2017-09-13T07:28:10.519Z,91.07
2017-09-13T07:28:51.104Z,91.16
2017-09-13T07:29:31.678Z,91.45
2017-09-13T07:30:12.245Z,91.55
2017-09-13T07:30:52.848Z,91.45
2017-09-13T07:31:33.411Z,91.26
2017-09-13T07:32:13.977Z,91.64
2017-09-13T07:32:54.556Z,91.64
2017-09-13T07:33:35.170Z,91.26
2017-09-13T07:34:15.731Z,91.45
2017-09-13T07:34:56.292Z,91.45
2017-09-13T07:35:36.924Z,90.97
2017-09-13T07:36:17.464Z,91.26
2017-09-13T07:36:58.037Z,91.55
2017-09-13T07:37:38.595Z,91.45
2017-09-13T07:38:19.138Z,91.64
2017-09-13T07:38:59.690Z,91.74
2017-09-13T07:39:40.276Z,91.83
2017-09-13T07:40:20.831Z,91.83
2017-09-13T07:41:01.399Z,91.64
2017-09-13T07:41:41.954Z,91.64
2017-09-13T07:42:22.513Z,91.83
2017-09-13T07:43:03.059Z,92.12
2017-09-13T07:43:43.644Z,92.12
2017-09-13T07:44:24.216Z,92.21
2017-09-13T07:45:04.771Z,92.31
2017-09-13T07:45:45.348Z,92.02
2017-09-13T07:46:25.923Z,92.31
2017-09-13T07:47:06.485Z,92.02
2017-09-13T07:47:47.037Z,92.41
2017-09-13T07:48:27.624Z,92.31
2017-09-13T07:49:08.178Z,92.12
2017-09-13T07:49:48.758Z,92.5
2017-09-13T07:50:29.313Z,92.02
2017-09-13T07:51:09.878Z,91.74
2017-09-13T07:51:50.546Z,92.12
2017-09-13T07:52:31.072Z,92.12
2017-09-13T07:53:12.248Z,92.02
2017-09-13T07:53:53.533Z,92.31
2017-09-13T07:54:34.417Z,92.6
2017-09-13T07:55:16.004Z,92.02
2017-09-13T07:55:57.040Z,92.41
2017-09-13T07:56:37.607Z,92.21
2017-09-13T07:57:18.186Z,92.31
2017-09-13T07:57:58.753Z,92.79
2017-09-13T07:58:39.351Z,92.79
2017-09-13T07:59:19.906Z,93.46
2017-09-13T08:00:00.476Z,92.5
2017-09-13T08:00:41.075Z,93.26
2017-09-13T08:01:21.695Z,92.88
2017-09-13T08:02:02.256Z,92.88
2017-09-13T08:02:42.823Z,93.65
2017-09-13T08:03:23.371Z,93.65
2017-09-13T08:04:03.947Z,93.46
2017-09-13T08:04:44.532Z,93.93
2017-09-13T08:05:25.085Z,93.93
2017-09-13T08:06:05.633Z,94.03
2017-09-13T08:06:46.228Z,93.26
2017-09-13T08:07:26.804Z,93.36
2017-09-13T08:08:07.359Z,93.84
2017-09-13T08:08:47.944Z,93.93
2017-09-13T08:09:28.513Z,93.46
2017-09-13T08:10:09.063Z,93.65
2017-09-13T08:10:50.214Z,93.84
2017-09-13T08:11:30.784Z,93.93
2017-09-13T08:12:11.346Z,93.65
2017-09-13T08:12:51.912Z,93.46
2017-09-13T08:13:32.495Z,93.84
2017-09-13T08:14:13.066Z,93.36
2017-09-13T08:14:53.634Z,93.84
2017-09-13T08:15:34.198Z,93.74
2017-09-13T08:16:14.757Z,93.84
2017-09-13T08:16:55.569Z,94.41
2017-09-13T08:17:36.135Z,94.6
2017-09-13T08:18:16.701Z,94.7
2017-09-13T08:18:57.257Z,94.22
2017-09-13T08:19:37.829Z,94.51
2017-09-13T08:20:18.406Z,94.7
2017-09-13T08:20:58.991Z,94.22
2017-09-13T08:21:39.552Z,94.22
2017-09-13T08:22:20.115Z,94.12
2017-09-13T08:23:00.710Z,94.31
2017-09-13T08:23:41.703Z,94.31
2017-09-13T08:24:22.290Z,93.74
2017-09-13T08:25:02.881Z,94.22
2017-09-13T08:25:43.449Z,94.51
2017-09-13T08:26:24.012Z,94.51
2017-09-13T08:27:04.628Z,94.6
2017-09-13T08:27:45.223Z,94.51
2017-09-13T08:28:25.784Z,94.6
2017-09-13T08:29:06.338Z,94.41
2017-09-13T08:29:46.921Z,94.6
2017-09-13T08:30:27.636Z,94.51
2017-09-13T08:31:08.320Z,95.27
2017-09-13T08:31:48.944Z,94.79
2017-09-13T08:32:29.492Z,94.79
2017-09-13T08:33:10.084Z,94.89
2017-09-13T08:33:50.704Z,94.51
2017-09-13T08:34:31.877Z,94.7
2017-09-13T08:35:12.503Z,94.51
2017-09-13T08:35:53.099Z,94.89
2017-09-13T08:36:33.758Z,93.84
2017-09-13T08:37:14.739Z,94.51
2017-09-13T08:37:55.344Z,94.51
2017-09-13T08:38:36.220Z,94.41
2017-09-13T08:39:16.844Z,95.17
2017-09-13T08:39:57.645Z,94.79
2017-09-13T08:40:38.301Z,94.98
2017-09-13T08:41:18.892Z,94.98
2017-09-13T08:41:59.452Z,94.7
2017-09-13T08:42:40.046Z,94.79
2017-09-13T08:43:20.625Z,94.89
2017-09-13T08:44:01.201Z,94.7
2017-09-13T08:44:41.767Z,95.65
2017-09-13T08:45:22.326Z,95.27
2017-09-13T08:46:02.899Z,95.17
2017-09-13T08:46:43.590Z,95.46
2017-09-13T08:47:24.149Z,94.89